sensor_id;sensor_type;location;lat;lon;timestamp;P1;durP1;ratioP1;P2;durP2;ratioP2
60847;SDS011;46681;47.696;9.140;2022-07-10T00:02:11;4.95;;;1.60;;
60847;SDS011;46681;47.696;9.140;2022-07-10T00:04:37;3.83;;;1.63;;
60847;SDS011;46681;47.696;9.140;2022-07-10T00:07:11;4.68;;;1.52;;
60847;SDS011;46681;47.696;9.140;2022-07-10T00:09:43;4.30;;;1.60;;
60847;SDS011;46681;47.696;9.140;2022-07-10T00:12:08;4.50;;;1.40;;
60847;SDS011;46681;47.696;9.140;2022-07-10T00:14:37;4.30;;;1.50;;
60847;SDS011;46681;47.696;9.140;2022-07-10T00:17:02;4.32;;;1.60;;
60847;SDS011;46681;47.696;9.140;2022-07-10T00:19:28;3.88;;;1.40;;
60847;SDS011;46681;47.696;9.140;2022-07-10T00:21:54;5.15;;;1.50;;
60847;SDS011;46681;47.696;9.140;2022-07-10T00:24:19;4.00;;;1.42;;
60847;SDS011;46681;47.696;9.140;2022-07-10T00:26:45;4.65;;;1.50;;
60847;SDS011;46681;47.696;9.140;2022-07-10T00:29:10;5.30;;;1.70;;
60847;SDS011;46681;47.696;9.140;2022-07-10T00:31:43;6.22;;;1.70;;
60847;SDS011;46681;47.696;9.140;2022-07-10T00:34:13;2.95;;;1.40;;
60847;SDS011;46681;47.696;9.140;2022-07-10T00:36:40;5.10;;;1.60;;
60847;SDS011;46681;47.696;9.140;2022-07-10T00:39:06;4.13;;;1.60;;
60847;SDS011;46681;47.696;9.140;2022-07-10T00:41:32;5.90;;;1.80;;
60847;SDS011;46681;47.696;9.140;2022-07-10T00:43:58;4.30;;;1.60;;
60847;SDS011;46681;47.696;9.140;2022-07-10T00:46:29;6.60;;;1.70;;
60847;SDS011;46681;47.696;9.140;2022-07-10T00:48:56;4.13;;;1.45;;
60847;SDS011;46681;47.696;9.140;2022-07-10T00:51:26;5.07;;;1.50;;
60847;SDS011;46681;47.696;9.140;2022-07-10T00:54:01;3.63;;;1.42;;
60847;SDS011;46681;47.696;9.140;2022-07-10T00:56:28;5.45;;;1.70;;
60847;SDS011;46681;47.696;9.140;2022-07-10T00:58:57;5.03;;;1.60;;
60847;SDS011;46681;47.696;9.140;2022-07-10T01:01:23;5.05;;;1.70;;
60847;SDS011;46681;47.696;9.140;2022-07-10T01:03:51;5.50;;;1.75;;
60847;SDS011;46681;47.696;9.140;2022-07-10T01:06:16;5.15;;;1.65;;
60847;SDS011;46681;47.696;9.140;2022-07-10T01:08:42;4.57;;;1.70;;
60847;SDS011;46681;47.696;9.140;2022-07-10T01:11:10;5.10;;;1.65;;
60847;SDS011;46681;47.696;9.140;2022-07-10T01:13:39;4.85;;;1.60;;
60847;SDS011;46681;47.696;9.140;2022-07-10T01:16:06;4.97;;;1.70;;
60847;SDS011;46681;47.696;9.140;2022-07-10T01:18:31;6.38;;;1.73;;
60847;SDS011;46681;47.696;9.140;2022-07-10T01:20:59;4.88;;;1.70;;
60847;SDS011;46681;47.696;9.140;2022-07-10T01:23:26;4.82;;;1.60;;
60847;SDS011;46681;47.696;9.140;2022-07-10T01:25:52;4.93;;;1.50;;
60847;SDS011;46681;47.696;9.140;2022-07-10T01:28:18;4.80;;;1.73;;
60847;SDS011;46681;47.696;9.140;2022-07-10T01:30:48;4.97;;;1.70;;
60847;SDS011;46681;47.696;9.140;2022-07-10T01:33:19;5.03;;;1.70;;
60847;SDS011;46681;47.696;9.140;2022-07-10T01:35:48;4.78;;;1.50;;
60847;SDS011;46681;47.696;9.140;2022-07-10T01:38:14;5.35;;;1.50;;
60847;SDS011;46681;47.696;9.140;2022-07-10T01:40:44;5.07;;;1.60;;
60847;SDS011;46681;47.696;9.140;2022-07-10T01:43:14;5.40;;;1.60;;
60847;SDS011;46681;47.696;9.140;2022-07-10T01:45:39;4.75;;;1.75;;
60847;SDS011;46681;47.696;9.140;2022-07-10T01:48:05;5.28;;;1.83;;
60847;SDS011;46681;47.696;9.140;2022-07-10T01:50:36;3.50;;;1.40;;
60847;SDS011;46681;47.696;9.140;2022-07-10T01:53:04;5.18;;;1.60;;
60847;SDS011;46681;47.696;9.140;2022-07-10T01:55:30;5.22;;;1.60;;
60847;SDS011;46681;47.696;9.140;2022-07-10T01:57:56;3.65;;;1.55;;
60847;SDS011;46681;47.696;9.140;2022-07-10T02:00:23;4.85;;;1.60;;
60847;SDS011;46681;47.696;9.140;2022-07-10T02:02:51;4.78;;;1.60;;
60847;SDS011;46681;47.696;9.140;2022-07-10T02:07:54;4.55;;;1.70;;
60847;SDS011;46681;47.696;9.140;2022-07-10T02:10:19;4.47;;;1.80;;
60847;SDS011;46681;47.696;9.140;2022-07-10T02:12:45;4.85;;;1.70;;
60847;SDS011;46681;47.696;9.140;2022-07-10T02:15:11;4.70;;;1.67;;
60847;SDS011;46681;47.696;9.140;2022-07-10T02:17:38;5.28;;;1.77;;
60847;SDS011;46681;47.696;9.140;2022-07-10T02:20:04;4.90;;;1.70;;
60847;SDS011;46681;47.696;9.140;2022-07-10T02:22:32;4.88;;;1.60;;
60847;SDS011;46681;47.696;9.140;2022-07-10T02:25:02;4.15;;;1.60;;
60847;SDS011;46681;47.696;9.140;2022-07-10T02:27:29;6.00;;;1.98;;
60847;SDS011;46681;47.696;9.140;2022-07-10T02:29:58;4.72;;;1.60;;
60847;SDS011;46681;47.696;9.140;2022-07-10T02:32:26;5.18;;;1.70;;
60847;SDS011;46681;47.696;9.140;2022-07-10T02:34:51;6.00;;;1.88;;
60847;SDS011;46681;47.696;9.140;2022-07-10T02:37:19;4.72;;;1.50;;
60847;SDS011;46681;47.696;9.140;2022-07-10T02:39:47;5.13;;;1.75;;
60847;SDS011;46681;47.696;9.140;2022-07-10T02:42:13;5.95;;;1.80;;
60847;SDS011;46681;47.696;9.140;2022-07-10T02:44:41;4.68;;;1.60;;
60847;SDS011;46681;47.696;9.140;2022-07-10T02:47:07;4.40;;;1.60;;
60847;SDS011;46681;47.696;9.140;2022-07-10T02:49:32;5.32;;;1.60;;
60847;SDS011;46681;47.696;9.140;2022-07-10T02:52:00;5.47;;;1.73;;
60847;SDS011;46681;47.696;9.140;2022-07-10T02:54:25;3.35;;;1.40;;
60847;SDS011;46681;47.696;9.140;2022-07-10T02:56:51;3.03;;;1.40;;
60847;SDS011;46681;47.696;9.140;2022-07-10T02:59:17;4.28;;;1.60;;
60847;SDS011;46681;47.696;9.140;2022-07-10T03:01:44;4.57;;;1.50;;
60847;SDS011;46681;47.696;9.140;2022-07-10T03:04:10;5.43;;;1.73;;
60847;SDS011;46681;47.696;9.140;2022-07-10T03:06:35;5.25;;;1.80;;
60847;SDS011;46681;47.696;9.140;2022-07-10T03:09:01;5.40;;;1.80;;
60847;SDS011;46681;47.696;9.140;2022-07-10T03:11:30;5.18;;;1.90;;
60847;SDS011;46681;47.696;9.140;2022-07-10T03:13:56;5.50;;;1.70;;
60847;SDS011;46681;47.696;9.140;2022-07-10T03:16:22;5.35;;;1.80;;
60847;SDS011;46681;47.696;9.140;2022-07-10T03:18:47;4.60;;;1.67;;
60847;SDS011;46681;47.696;9.140;2022-07-10T03:21:14;6.50;;;1.83;;
60847;SDS011;46681;47.696;9.140;2022-07-10T03:23:40;5.60;;;1.65;;
60847;SDS011;46681;47.696;9.140;2022-07-10T03:26:08;6.25;;;1.80;;
60847;SDS011;46681;47.696;9.140;2022-07-10T03:28:36;4.85;;;1.80;;
60847;SDS011;46681;47.696;9.140;2022-07-10T03:31:08;4.93;;;1.70;;
60847;SDS011;46681;47.696;9.140;2022-07-10T03:33:33;4.35;;;1.50;;
60847;SDS011;46681;47.696;9.140;2022-07-10T03:36:01;3.90;;;1.55;;
60847;SDS011;46681;47.696;9.140;2022-07-10T03:38:30;5.53;;;1.70;;
60847;SDS011;46681;47.696;9.140;2022-07-10T03:40:59;4.15;;;1.50;;
60847;SDS011;46681;47.696;9.140;2022-07-10T03:43:27;4.05;;;1.52;;
60847;SDS011;46681;47.696;9.140;2022-07-10T03:45:56;3.70;;;1.50;;
60847;SDS011;46681;47.696;9.140;2022-07-10T03:48:24;5.28;;;1.80;;
60847;SDS011;46681;47.696;9.140;2022-07-10T03:50:50;3.88;;;1.60;;
60847;SDS011;46681;47.696;9.140;2022-07-10T03:53:17;5.13;;;1.70;;
60847;SDS011;46681;47.696;9.140;2022-07-10T03:55:45;4.63;;;1.70;;
60847;SDS011;46681;47.696;9.140;2022-07-10T03:58:14;5.45;;;1.80;;
60847;SDS011;46681;47.696;9.140;2022-07-10T04:00:39;6.00;;;1.70;;
60847;SDS011;46681;47.696;9.140;2022-07-10T04:03:05;4.00;;;1.60;;
60847;SDS011;46681;47.696;9.140;2022-07-10T04:05:33;4.78;;;1.80;;
60847;SDS011;46681;47.696;9.140;2022-07-10T04:07:59;4.68;;;1.73;;
60847;SDS011;46681;47.696;9.140;2022-07-10T04:10:30;5.53;;;1.80;;
60847;SDS011;46681;47.696;9.140;2022-07-10T04:12:57;5.63;;;1.83;;
60847;SDS011;46681;47.696;9.140;2022-07-10T04:15:23;4.55;;;1.60;;
60847;SDS011;46681;47.696;9.140;2022-07-10T04:17:49;5.13;;;1.80;;
60847;SDS011;46681;47.696;9.140;2022-07-10T04:20:15;5.13;;;1.73;;
60847;SDS011;46681;47.696;9.140;2022-07-10T04:22:45;4.20;;;1.80;;
60847;SDS011;46681;47.696;9.140;2022-07-10T04:25:11;4.15;;;1.70;;
60847;SDS011;46681;47.696;9.140;2022-07-10T04:27:40;5.57;;;1.77;;
60847;SDS011;46681;47.696;9.140;2022-07-10T04:30:06;4.00;;;1.70;;
60847;SDS011;46681;47.696;9.140;2022-07-10T04:32:34;6.20;;;1.90;;
60847;SDS011;46681;47.696;9.140;2022-07-10T04:35:02;4.15;;;1.60;;
60847;SDS011;46681;47.696;9.140;2022-07-10T04:37:29;5.15;;;1.80;;
60847;SDS011;46681;47.696;9.140;2022-07-10T04:39:54;4.70;;;1.63;;
60847;SDS011;46681;47.696;9.140;2022-07-10T04:42:20;4.88;;;1.70;;
60847;SDS011;46681;47.696;9.140;2022-07-10T04:44:47;5.70;;;1.90;;
60847;SDS011;46681;47.696;9.140;2022-07-10T04:47:15;6.55;;;1.90;;
60847;SDS011;46681;47.696;9.140;2022-07-10T04:49:41;5.28;;;1.77;;
60847;SDS011;46681;47.696;9.140;2022-07-10T04:52:07;5.07;;;1.60;;
60847;SDS011;46681;47.696;9.140;2022-07-10T04:54:33;4.43;;;1.60;;
60847;SDS011;46681;47.696;9.140;2022-07-10T04:56:58;4.80;;;1.58;;
60847;SDS011;46681;47.696;9.140;2022-07-10T04:59:24;6.05;;;1.80;;
60847;SDS011;46681;47.696;9.140;2022-07-10T05:01:49;4.68;;;1.65;;
60847;SDS011;46681;47.696;9.140;2022-07-10T05:04:15;5.05;;;1.67;;
60847;SDS011;46681;47.696;9.140;2022-07-10T05:06:40;5.30;;;1.73;;
60847;SDS011;46681;47.696;9.140;2022-07-10T05:09:07;5.28;;;1.70;;
60847;SDS011;46681;47.696;9.140;2022-07-10T05:11:33;4.78;;;1.70;;
60847;SDS011;46681;47.696;9.140;2022-07-10T05:13:59;4.38;;;1.65;;
60847;SDS011;46681;47.696;9.140;2022-07-10T05:16:24;5.03;;;1.80;;
60847;SDS011;46681;47.696;9.140;2022-07-10T05:18:50;5.07;;;1.73;;
60847;SDS011;46681;47.696;9.140;2022-07-10T05:21:15;5.07;;;1.75;;
60847;SDS011;46681;47.696;9.140;2022-07-10T05:23:43;5.80;;;2.00;;
60847;SDS011;46681;47.696;9.140;2022-07-10T05:26:08;5.70;;;1.80;;
60847;SDS011;46681;47.696;9.140;2022-07-10T05:28:34;4.28;;;1.77;;
60847;SDS011;46681;47.696;9.140;2022-07-10T05:31:02;6.07;;;2.00;;
60847;SDS011;46681;47.696;9.140;2022-07-10T05:33:27;5.47;;;1.70;;
60847;SDS011;46681;47.696;9.140;2022-07-10T05:35:53;5.35;;;1.80;;
60847;SDS011;46681;47.696;9.140;2022-07-10T05:38:23;5.22;;;1.80;;
60847;SDS011;46681;47.696;9.140;2022-07-10T05:40:51;5.93;;;1.80;;
60847;SDS011;46681;47.696;9.140;2022-07-10T05:43:17;5.60;;;1.73;;
60847;SDS011;46681;47.696;9.140;2022-07-10T05:45:44;6.55;;;1.90;;
60847;SDS011;46681;47.696;9.140;2022-07-10T05:48:12;6.68;;;1.95;;
60847;SDS011;46681;47.696;9.140;2022-07-10T05:50:42;7.70;;;2.20;;
60847;SDS011;46681;47.696;9.140;2022-07-10T05:53:10;8.20;;;2.20;;
60847;SDS011;46681;47.696;9.140;2022-07-10T05:55:37;9.95;;;2.38;;
60847;SDS011;46681;47.696;9.140;2022-07-10T05:58:03;10.32;;;2.30;;
60847;SDS011;46681;47.696;9.140;2022-07-10T06:00:29;9.75;;;2.30;;
60847;SDS011;46681;47.696;9.140;2022-07-10T06:02:54;11.15;;;2.30;;
60847;SDS011;46681;47.696;9.140;2022-07-10T06:05:28;10.20;;;2.00;;
60847;SDS011;46681;47.696;9.140;2022-07-10T06:07:53;7.18;;;2.10;;
60847;SDS011;46681;47.696;9.140;2022-07-10T06:10:19;9.73;;;2.30;;
60847;SDS011;46681;47.696;9.140;2022-07-10T06:12:45;6.47;;;1.90;;
60847;SDS011;46681;47.696;9.140;2022-07-10T06:15:15;8.95;;;2.38;;
60847;SDS011;46681;47.696;9.140;2022-07-10T06:17:40;5.70;;;1.92;;
60847;SDS011;46681;47.696;9.140;2022-07-10T06:20:06;8.00;;;1.95;;
60847;SDS011;46681;47.696;9.140;2022-07-10T06:22:37;6.78;;;1.80;;
60847;SDS011;46681;47.696;9.140;2022-07-10T06:25:05;7.40;;;1.92;;
60847;SDS011;46681;47.696;9.140;2022-07-10T06:27:36;7.68;;;2.10;;
60847;SDS011;46681;47.696;9.140;2022-07-10T06:30:13;7.88;;;2.00;;
60847;SDS011;46681;47.696;9.140;2022-07-10T06:32:41;6.20;;;1.88;;
60847;SDS011;46681;47.696;9.140;2022-07-10T06:35:11;6.47;;;1.77;;
60847;SDS011;46681;47.696;9.140;2022-07-10T06:37:39;6.30;;;2.00;;
60847;SDS011;46681;47.696;9.140;2022-07-10T06:40:09;7.18;;;1.90;;
60847;SDS011;46681;47.696;9.140;2022-07-10T06:42:46;6.03;;;2.00;;
60847;SDS011;46681;47.696;9.140;2022-07-10T06:45:13;6.25;;;1.70;;
60847;SDS011;46681;47.696;9.140;2022-07-10T06:47:43;7.05;;;1.90;;
60847;SDS011;46681;47.696;9.140;2022-07-10T06:50:08;6.50;;;1.77;;
60847;SDS011;46681;47.696;9.140;2022-07-10T06:52:34;6.85;;;2.00;;
60847;SDS011;46681;47.696;9.140;2022-07-10T06:55:02;5.80;;;1.80;;
60847;SDS011;46681;47.696;9.140;2022-07-10T06:57:34;6.50;;;1.90;;
60847;SDS011;46681;47.696;9.140;2022-07-10T06:59:59;6.97;;;1.80;;
60847;SDS011;46681;47.696;9.140;2022-07-10T07:02:29;6.15;;;1.70;;
60847;SDS011;46681;47.696;9.140;2022-07-10T07:04:55;7.07;;;2.00;;
60847;SDS011;46681;47.696;9.140;2022-07-10T07:07:20;6.25;;;1.80;;
60847;SDS011;46681;47.696;9.140;2022-07-10T07:09:46;4.88;;;1.70;;
60847;SDS011;46681;47.696;9.140;2022-07-10T07:12:14;6.13;;;1.98;;
60847;SDS011;46681;47.696;9.140;2022-07-10T07:14:40;6.03;;;1.95;;
60847;SDS011;46681;47.696;9.140;2022-07-10T07:17:09;4.65;;;1.88;;
60847;SDS011;46681;47.696;9.140;2022-07-10T07:19:36;6.45;;;2.10;;
60847;SDS011;46681;47.696;9.140;2022-07-10T07:22:02;6.10;;;1.98;;
60847;SDS011;46681;47.696;9.140;2022-07-10T07:24:29;5.43;;;2.00;;
60847;SDS011;46681;47.696;9.140;2022-07-10T07:26:56;6.70;;;2.00;;
60847;SDS011;46681;47.696;9.140;2022-07-10T07:29:21;5.55;;;1.90;;
60847;SDS011;46681;47.696;9.140;2022-07-10T07:31:50;6.85;;;2.22;;
60847;SDS011;46681;47.696;9.140;2022-07-10T07:34:16;6.30;;;2.05;;
60847;SDS011;46681;47.696;9.140;2022-07-10T07:36:44;13.75;;;2.05;;
60847;SDS011;46681;47.696;9.140;2022-07-10T07:39:10;6.78;;;1.88;;
60847;SDS011;46681;47.696;9.140;2022-07-10T07:41:36;6.43;;;1.90;;
60847;SDS011;46681;47.696;9.140;2022-07-10T07:44:08;4.45;;;1.70;;
60847;SDS011;46681;47.696;9.140;2022-07-10T07:46:41;6.82;;;2.00;;
60847;SDS011;46681;47.696;9.140;2022-07-10T07:49:12;5.22;;;1.88;;
60847;SDS011;46681;47.696;9.140;2022-07-10T07:51:42;5.10;;;1.83;;
60847;SDS011;46681;47.696;9.140;2022-07-10T07:54:11;4.57;;;1.80;;
60847;SDS011;46681;47.696;9.140;2022-07-10T07:56:36;5.60;;;1.98;;
60847;SDS011;46681;47.696;9.140;2022-07-10T07:59:08;7.20;;;2.10;;
60847;SDS011;46681;47.696;9.140;2022-07-10T08:01:42;5.18;;;1.80;;
60847;SDS011;46681;47.696;9.140;2022-07-10T08:04:11;5.18;;;1.75;;
60847;SDS011;46681;47.696;9.140;2022-07-10T08:06:36;6.07;;;1.90;;
60847;SDS011;46681;47.696;9.140;2022-07-10T08:09:08;6.25;;;1.88;;
60847;SDS011;46681;47.696;9.140;2022-07-10T08:11:35;6.05;;;1.83;;
60847;SDS011;46681;47.696;9.140;2022-07-10T08:14:02;4.72;;;1.73;;
60847;SDS011;46681;47.696;9.140;2022-07-10T08:16:30;5.55;;;1.83;;
60847;SDS011;46681;47.696;9.140;2022-07-10T08:18:59;4.93;;;1.90;;
60847;SDS011;46681;47.696;9.140;2022-07-10T08:21:25;4.35;;;1.70;;
60847;SDS011;46681;47.696;9.140;2022-07-10T08:23:52;6.43;;;1.80;;
60847;SDS011;46681;47.696;9.140;2022-07-10T08:26:19;6.50;;;1.80;;
60847;SDS011;46681;47.696;9.140;2022-07-10T08:28:47;5.10;;;1.70;;
60847;SDS011;46681;47.696;9.140;2022-07-10T08:31:13;5.28;;;1.80;;
60847;SDS011;46681;47.696;9.140;2022-07-10T08:33:39;5.22;;;1.75;;
60847;SDS011;46681;47.696;9.140;2022-07-10T08:36:05;6.72;;;1.98;;
60847;SDS011;46681;47.696;9.140;2022-07-10T08:38:31;6.22;;;1.80;;
60847;SDS011;46681;47.696;9.140;2022-07-10T08:40:57;4.97;;;1.60;;
60847;SDS011;46681;47.696;9.140;2022-07-10T08:43:26;5.68;;;1.90;;
60847;SDS011;46681;47.696;9.140;2022-07-10T08:45:56;6.00;;;1.80;;
60847;SDS011;46681;47.696;9.140;2022-07-10T08:48:25;5.53;;;2.00;;
60847;SDS011;46681;47.696;9.140;2022-07-10T08:51:05;6.15;;;2.00;;
60847;SDS011;46681;47.696;9.140;2022-07-10T08:53:37;5.88;;;2.03;;
60847;SDS011;46681;47.696;9.140;2022-07-10T08:56:07;5.55;;;1.90;;
60847;SDS011;46681;47.696;9.140;2022-07-10T08:58:40;4.15;;;1.80;;
60847;SDS011;46681;47.696;9.140;2022-07-10T09:01:20;6.22;;;2.08;;
60847;SDS011;46681;47.696;9.140;2022-07-10T09:03:49;5.07;;;1.88;;
60847;SDS011;46681;47.696;9.140;2022-07-10T09:06:18;5.47;;;1.90;;
60847;SDS011;46681;47.696;9.140;2022-07-10T09:09:26;6.20;;;1.90;;
60847;SDS011;46681;47.696;9.140;2022-07-10T09:11:54;6.55;;;2.22;;
60847;SDS011;46681;47.696;9.140;2022-07-10T09:14:42;6.35;;;1.80;;
60847;SDS011;46681;47.696;9.140;2022-07-10T09:17:11;5.18;;;1.85;;
60847;SDS011;46681;47.696;9.140;2022-07-10T09:19:39;5.43;;;1.80;;
60847;SDS011;46681;47.696;9.140;2022-07-10T09:22:08;5.28;;;1.80;;
60847;SDS011;46681;47.696;9.140;2022-07-10T09:24:37;6.15;;;1.80;;
60847;SDS011;46681;47.696;9.140;2022-07-10T09:27:11;4.30;;;1.63;;
60847;SDS011;46681;47.696;9.140;2022-07-10T09:32:18;5.10;;;1.80;;
60847;SDS011;46681;47.696;9.140;2022-07-10T09:34:47;5.03;;;1.80;;
60847;SDS011;46681;47.696;9.140;2022-07-10T09:37:29;4.78;;;1.90;;
60847;SDS011;46681;47.696;9.140;2022-07-10T09:40:08;4.05;;;1.70;;
60847;SDS011;46681;47.696;9.140;2022-07-10T09:42:39;5.68;;;1.80;;
60847;SDS011;46681;47.696;9.140;2022-07-10T09:47:37;4.82;;;1.67;;
60847;SDS011;46681;47.696;9.140;2022-07-10T09:53:03;6.60;;;1.73;;
60847;SDS011;46681;47.696;9.140;2022-07-10T09:55:36;4.88;;;1.60;;
60847;SDS011;46681;47.696;9.140;2022-07-10T09:58:05;5.65;;;1.77;;
60847;SDS011;46681;47.696;9.140;2022-07-10T10:00:38;4.13;;;1.65;;
60847;SDS011;46681;47.696;9.140;2022-07-10T10:03:09;4.75;;;1.70;;
60847;SDS011;46681;47.696;9.140;2022-07-10T10:05:54;5.97;;;1.70;;
60847;SDS011;46681;47.696;9.140;2022-07-10T10:11:56;5.20;;;1.70;;
60847;SDS011;46681;47.696;9.140;2022-07-10T10:14:28;4.57;;;1.63;;
60847;SDS011;46681;47.696;9.140;2022-07-10T10:17:03;5.65;;;1.80;;
60847;SDS011;46681;47.696;9.140;2022-07-10T10:19:39;3.33;;;1.58;;
60847;SDS011;46681;47.696;9.140;2022-07-10T10:22:17;5.88;;;1.60;;
60847;SDS011;46681;47.696;9.140;2022-07-10T10:24:50;5.15;;;1.63;;
60847;SDS011;46681;47.696;9.140;2022-07-10T10:27:22;4.97;;;1.73;;
60847;SDS011;46681;47.696;9.140;2022-07-10T10:29:51;5.25;;;1.83;;
60847;SDS011;46681;47.696;9.140;2022-07-10T10:32:25;4.05;;;1.60;;
60847;SDS011;46681;47.696;9.140;2022-07-10T10:34:56;4.03;;;1.50;;
60847;SDS011;46681;47.696;9.140;2022-07-10T10:37:35;4.15;;;1.52;;
60847;SDS011;46681;47.696;9.140;2022-07-10T10:40:31;6.35;;;1.98;;
60847;SDS011;46681;47.696;9.140;2022-07-10T10:43:17;6.75;;;1.95;;
60847;SDS011;46681;47.696;9.140;2022-07-10T10:46:22;5.70;;;1.80;;
60847;SDS011;46681;47.696;9.140;2022-07-10T10:49:12;4.60;;;1.60;;
60847;SDS011;46681;47.696;9.140;2022-07-10T10:54:31;4.43;;;1.60;;
60847;SDS011;46681;47.696;9.140;2022-07-10T10:57:42;4.35;;;1.60;;
60847;SDS011;46681;47.696;9.140;2022-07-10T11:00:29;4.93;;;1.70;;
60847;SDS011;46681;47.696;9.140;2022-07-10T11:03:14;5.13;;;1.80;;
60847;SDS011;46681;47.696;9.140;2022-07-10T11:05:48;3.45;;;1.40;;
60847;SDS011;46681;47.696;9.140;2022-07-10T11:08:53;3.97;;;1.60;;
60847;SDS011;46681;47.696;9.140;2022-07-10T11:13:59;4.93;;;1.60;;
60847;SDS011;46681;47.696;9.140;2022-07-10T11:16:35;5.38;;;1.88;;
60847;SDS011;46681;47.696;9.140;2022-07-10T11:19:25;4.70;;;1.67;;
60847;SDS011;46681;47.696;9.140;2022-07-10T11:27:28;5.32;;;1.70;;
60847;SDS011;46681;47.696;9.140;2022-07-10T11:30:08;3.90;;;1.50;;
60847;SDS011;46681;47.696;9.140;2022-07-10T11:32:44;4.28;;;1.65;;
60847;SDS011;46681;47.696;9.140;2022-07-10T11:35:21;5.13;;;1.60;;
60847;SDS011;46681;47.696;9.140;2022-07-10T11:37:51;5.05;;;2.00;;
60847;SDS011;46681;47.696;9.140;2022-07-10T11:40:37;5.70;;;1.70;;
60847;SDS011;46681;47.696;9.140;2022-07-10T11:43:29;4.60;;;1.70;;
60847;SDS011;46681;47.696;9.140;2022-07-10T11:46:16;5.03;;;1.77;;
60847;SDS011;46681;47.696;9.140;2022-07-10T11:49:08;4.60;;;1.60;;
60847;SDS011;46681;47.696;9.140;2022-07-10T11:52:02;7.50;;;1.90;;
60847;SDS011;46681;47.696;9.140;2022-07-10T11:54:32;4.63;;;1.75;;
60847;SDS011;46681;47.696;9.140;2022-07-10T11:57:04;5.05;;;1.70;;
60847;SDS011;46681;47.696;9.140;2022-07-10T11:59:39;4.63;;;1.60;;
60847;SDS011;46681;47.696;9.140;2022-07-10T12:02:06;4.20;;;1.70;;
60847;SDS011;46681;47.696;9.140;2022-07-10T12:04:41;6.07;;;1.77;;
60847;SDS011;46681;47.696;9.140;2022-07-10T12:07:09;5.00;;;1.70;;
60847;SDS011;46681;47.696;9.140;2022-07-10T12:12:23;4.22;;;1.67;;
60847;SDS011;46681;47.696;9.140;2022-07-10T12:15:06;4.45;;;1.70;;
60847;SDS011;46681;47.696;9.140;2022-07-10T12:18:20;4.93;;;1.83;;
60847;SDS011;46681;47.696;9.140;2022-07-10T12:21:00;5.55;;;1.83;;
60847;SDS011;46681;47.696;9.140;2022-07-10T12:23:46;3.78;;;1.50;;
60847;SDS011;46681;47.696;9.140;2022-07-10T12:26:32;5.47;;;1.65;;
60847;SDS011;46681;47.696;9.140;2022-07-10T12:29:19;5.10;;;1.70;;
60847;SDS011;46681;47.696;9.140;2022-07-10T12:34:40;3.83;;;1.58;;
60847;SDS011;46681;47.696;9.140;2022-07-10T12:37:18;4.68;;;1.70;;
60847;SDS011;46681;47.696;9.140;2022-07-10T12:39:52;3.75;;;1.60;;
60847;SDS011;46681;47.696;9.140;2022-07-10T12:42:30;4.55;;;1.60;;
60847;SDS011;46681;47.696;9.140;2022-07-10T12:45:27;3.75;;;1.48;;
60847;SDS011;46681;47.696;9.140;2022-07-10T12:48:26;4.38;;;1.60;;
60847;SDS011;46681;47.696;9.140;2022-07-10T12:51:24;4.63;;;1.50;;
60847;SDS011;46681;47.696;9.140;2022-07-10T12:54:05;5.18;;;1.60;;
60847;SDS011;46681;47.696;9.140;2022-07-10T12:56:57;4.68;;;1.70;;
60847;SDS011;46681;47.696;9.140;2022-07-10T12:59:35;4.03;;;1.50;;
60847;SDS011;46681;47.696;9.140;2022-07-10T13:02:22;4.63;;;1.60;;
60847;SDS011;46681;47.696;9.140;2022-07-10T13:04:57;4.72;;;1.40;;
60847;SDS011;46681;47.696;9.140;2022-07-10T13:07:36;3.83;;;1.50;;
60847;SDS011;46681;47.696;9.140;2022-07-10T13:10:14;4.07;;;1.60;;
60847;SDS011;46681;47.696;9.140;2022-07-10T13:13:03;3.65;;;1.40;;
60847;SDS011;46681;47.696;9.140;2022-07-10T13:15:50;2.97;;;1.33;;
60847;SDS011;46681;47.696;9.140;2022-07-10T13:18:24;2.53;;;1.30;;
60847;SDS011;46681;47.696;9.140;2022-07-10T13:21:07;3.20;;;1.40;;
60847;SDS011;46681;47.696;9.140;2022-07-10T13:23:40;3.47;;;1.30;;
60847;SDS011;46681;47.696;9.140;2022-07-10T13:26:42;3.55;;;1.50;;
60847;SDS011;46681;47.696;9.140;2022-07-10T13:29:09;3.47;;;1.50;;
60847;SDS011;46681;47.696;9.140;2022-07-10T13:31:57;3.03;;;1.43;;
60847;SDS011;46681;47.696;9.140;2022-07-10T13:34:48;4.70;;;1.45;;
60847;SDS011;46681;47.696;9.140;2022-07-10T13:37:21;4.38;;;1.50;;
60847;SDS011;46681;47.696;9.140;2022-07-10T13:40:04;7.38;;;1.60;;
60847;SDS011;46681;47.696;9.140;2022-07-10T13:42:48;6.70;;;1.50;;
60847;SDS011;46681;47.696;9.140;2022-07-10T13:45:15;5.30;;;1.58;;
60847;SDS011;46681;47.696;9.140;2022-07-10T13:47:42;8.15;;;1.55;;
60847;SDS011;46681;47.696;9.140;2022-07-10T13:50:12;5.40;;;1.40;;
60847;SDS011;46681;47.696;9.140;2022-07-10T13:52:52;6.95;;;1.58;;
60847;SDS011;46681;47.696;9.140;2022-07-10T13:55:21;9.20;;;1.58;;
60847;SDS011;46681;47.696;9.140;2022-07-10T13:57:48;6.18;;;1.50;;
60847;SDS011;46681;47.696;9.140;2022-07-10T14:00:25;3.83;;;1.45;;
60847;SDS011;46681;47.696;9.140;2022-07-10T14:03:09;6.47;;;1.50;;
60847;SDS011;46681;47.696;9.140;2022-07-10T14:05:41;4.22;;;1.30;;
60847;SDS011;46681;47.696;9.140;2022-07-10T14:10:41;4.57;;;1.40;;
60847;SDS011;46681;47.696;9.140;2022-07-10T14:13:33;5.03;;;1.50;;
60847;SDS011;46681;47.696;9.140;2022-07-10T14:16:07;3.25;;;1.30;;
60847;SDS011;46681;47.696;9.140;2022-07-10T14:18:40;3.53;;;1.30;;
60847;SDS011;46681;47.696;9.140;2022-07-10T14:21:34;4.13;;;1.50;;
60847;SDS011;46681;47.696;9.140;2022-07-10T14:24:16;4.28;;;1.50;;
60847;SDS011;46681;47.696;9.140;2022-07-10T14:26:50;4.28;;;1.48;;
60847;SDS011;46681;47.696;9.140;2022-07-10T14:29:47;3.45;;;1.60;;
60847;SDS011;46681;47.696;9.140;2022-07-10T14:32:30;5.15;;;1.45;;
60847;SDS011;46681;47.696;9.140;2022-07-10T14:35:01;4.18;;;1.40;;
60847;SDS011;46681;47.696;9.140;2022-07-10T14:37:37;4.03;;;1.35;;
60847;SDS011;46681;47.696;9.140;2022-07-10T14:40:13;5.05;;;1.60;;
60847;SDS011;46681;47.696;9.140;2022-07-10T14:42:44;5.03;;;1.60;;
60847;SDS011;46681;47.696;9.140;2022-07-10T14:45:16;5.03;;;1.52;;
60847;SDS011;46681;47.696;9.140;2022-07-10T14:47:49;5.45;;;1.60;;
60847;SDS011;46681;47.696;9.140;2022-07-10T14:50:24;6.57;;;1.70;;
60847;SDS011;46681;47.696;9.140;2022-07-10T14:52:58;5.38;;;1.60;;
60847;SDS011;46681;47.696;9.140;2022-07-10T14:55:50;5.93;;;1.70;;
60847;SDS011;46681;47.696;9.140;2022-07-10T14:58:17;5.28;;;1.60;;
60847;SDS011;46681;47.696;9.140;2022-07-10T15:00:51;4.82;;;1.50;;
60847;SDS011;46681;47.696;9.140;2022-07-10T15:03:26;3.63;;;1.60;;
60847;SDS011;46681;47.696;9.140;2022-07-10T15:06:02;4.55;;;1.70;;
60847;SDS011;46681;47.696;9.140;2022-07-10T15:08:53;4.75;;;1.50;;
60847;SDS011;46681;47.696;9.140;2022-07-10T15:11:23;5.40;;;1.50;;
60847;SDS011;46681;47.696;9.140;2022-07-10T15:13:51;5.32;;;1.63;;
60847;SDS011;46681;47.696;9.140;2022-07-10T15:16:33;3.20;;;1.38;;
60847;SDS011;46681;47.696;9.140;2022-07-10T15:19:20;4.15;;;1.40;;
60847;SDS011;46681;47.696;9.140;2022-07-10T15:21:48;3.80;;;1.52;;
60847;SDS011;46681;47.696;9.140;2022-07-10T15:26:54;5.35;;;1.60;;
60847;SDS011;46681;47.696;9.140;2022-07-10T15:29:42;3.63;;;1.40;;
60847;SDS011;46681;47.696;9.140;2022-07-10T15:32:19;3.30;;;1.52;;
60847;SDS011;46681;47.696;9.140;2022-07-10T15:34:47;4.10;;;1.60;;
60847;SDS011;46681;47.696;9.140;2022-07-10T15:37:17;4.38;;;1.52;;
60847;SDS011;46681;47.696;9.140;2022-07-10T15:39:55;4.63;;;1.50;;
60847;SDS011;46681;47.696;9.140;2022-07-10T15:42:40;4.22;;;1.50;;
60847;SDS011;46681;47.696;9.140;2022-07-10T15:45:16;5.00;;;1.65;;
60847;SDS011;46681;47.696;9.140;2022-07-10T15:48:02;2.67;;;1.40;;
60847;SDS011;46681;47.696;9.140;2022-07-10T15:50:36;4.35;;;1.50;;
60847;SDS011;46681;47.696;9.140;2022-07-10T15:53:13;4.32;;;1.50;;